Okayama, Japan

7:57 PM JST on August 30, 2016 (GMT +0900)
国道2号線 | | Change Station

Elev 19 ft 34.64 °N, 133.92 °E | Updated 3 minutes ago

Partly Cloudy
Partly Cloudy
80.6 °F
Feels Like 81 °F
N
0.6
Wind Variable Wind from NE
Gusts 1.9 mph

Today
High -- | Low -- °F
--% Chance of Precip.
Yesterday
High -- | Low -- °F
Precip. -- in
Pressure 29.30 in
Visibility 6.2 miles
Clouds Few 2000 ft
Heat Index 81 °F
Dew Point 61 °F
Humidity 51%
Rainfall Not available.
Snow Depth Not available.
5:35 AM 6:33 PM
Waning Crescent, 4% visible
METAR RJOB 301000Z 26003KT 240V320 9999 FEW020 21/16 Q0992
Pressure 29.30 in
Visibility 6.2 miles
Clouds Few 2000 ft
Heat Index 81 °F
Dew Point 61 °F
Humidity 51%
Rainfall Not available.
Snow Depth Not available.
5:35 AM 6:33 PM
Waning Crescent, 4% visible
METAR RJOB 301000Z 26003KT 240V320 9999 FEW020 21/16 Q0992

10-Day Weather Forecast

No radar image for this location.
×

Almanac

Astronomy

Aug. 30, 2016 Rise Set
Actual Time
Civil Twilight
Nautical Twilight
Astronomical Twilight
Moon
Length of Visible Light
Length of Day
Tomorrow will be .
, % of the Moon is Illuminated

Today's Extremes

Country Highs Country Lows

Community

WunderPhotos

Upload Photos

1,935,809 photos uploaded!

WunderBlog® & News

Nearby

Air Quality

  Air Quality AQ Index Pollutant
Not available.

Snow Depth

Station Depth Elevation

Earthquake Activity

City Distance Mag. Time & Date
Minimum magnitude displayed is 2.5.

Coastal Water Temperatures

Place Temperature

Stations

Nearby Weather Stations

Station Location Temp. Windchill Dew Point Humidity Wind Precip. Elev Updated Type